x

Galveston,tx - 22 Nm East Of Galveston, Tx (42035) Wave Buoy

12:50pm - Thu 2nd Jul 2015 All times are CDT. -5 hours from GMT.

  • Sig Wave height 3.0ft
  • Swell Direction
  • Peak Period 7s
  • Average Period 5s
  • Wind
    13mph, 16mph gusts
  • Sea Temp 83°f
  • Air Temp 84°f
  • Sea Pressure 1017.4mb
  • Galveston,tx -  22 Nm East Of Galveston, Tx
  • Galveston,tx -  22 Nm East Of Galveston, Tx

More Historic Weather Station data

Upgrade to MSW Pro to gain access to the past 30 days of data for over 8000 Wavebouys and Weather Stations around the globe.

Join Pro

Comparision Forecast

View Surf forecast
   
Thu 07/02 12:50pm 3ft 7s 5s 13 16 mph 1017.4mb 83f 84f
11:50am 3.5ft 6s 5s 13
mph
1017.6mb 83f 84f
10:50am 3.5ft 7s 5s 11
mph
1017.7mb 83f 84f
9:50am 3.5ft 7s 5s 11 13 mph 1017.4mb 82f 83f
8:50am 3.5ft 7s 5s 11
mph
1017.2mb 82f 83f
7:50am 3.5ft 6s 5s 11 13 mph 1016.8mb 82f 83f
6:50am 3.5ft 7s 5s 11 13 mph 1016.6mb 82f 83f
5:50am 3.5ft 7s 6s 11 13 mph 1016.2mb 82f 83f
4:50am 3ft 7s 6s 4
mph
1016.3mb 82f 81f
3:50am 3ft 6s 6s 2 4 mph 1015.7mb 82f 81f
2:50am 3ft 6s 5s 7 9 mph 1015.8mb 82f 81f
1:50am 3ft 7s 5s 4 7 mph 1016.4mb 82f 81f
12:50am 3ft 7s 5s 2 4 mph 1017.4mb 82f 81f
Wed 07/01 11:50pm 3ft 7s 5s 2 4 mph 1017.9mb 82f 80f
10:50pm 3.5ft 7s 5s  -  2 mph 1017.7mb 82f 80f
9:50pm 3ft 7s 5s 4 7 mph 1017.4mb 82f 80f
8:50pm 3.5ft 7s 5s 2 4 mph 1016.6mb 83f 80f
7:50pm 3.5ft 7s 5s 11 16 mph 1016.4mb 83f 80f
6:50pm  -   -   -  16 18 mph 1016.9mb 83f 80f
5:50pm 4ft 6s 5s 18 22 mph 1016.6mb 83f 80f
4:50pm 4ft 6s 5s 16 20 mph 1016.1mb 84f 84f
3:50pm 3.5ft 6s 5s 13 16 mph 1016.5mb 84f 85f
2:50pm 3.5ft 6s 5s 13 16 mph 1016.8mb 84f 85f
1:50pm 3.5ft 5s 4s 11 13 mph 1017.6mb 83f 85f
12:50pm 3.5ft 5s 4s 11 13 mph 1017.9mb 83f 84f
11:50am 3.5ft 5s 4s 11 13 mph 1017.9mb 83f 84f
10:50am 3.5ft 5s 4s 11 13 mph 1018.2mb 82f 84f
9:50am 3.5ft 5s 5s 9 11 mph 1018.1mb 82f 84f
8:50am 3ft 6s 4s 9 11 mph 1017.5mb 82f 83f
7:50am 3.5ft 6s 5s 11
mph
1016.8mb 82f 83f
6:50am 3.5ft 6s 5s 9 11 mph 1016.2mb 82f 83f
5:50am 3.5ft 7s 5s 9 11 mph 1016.3mb 82f 83f
4:50am 3.5ft 7s 5s 9 11 mph 1016.4mb 82f 83f
3:50am 3.5ft 7s 5s 11
mph
1016.8mb 82f 83f
2:50am 3.5ft 7s 5s 9 11 mph 1017.1mb 82f 83f
1:50am 3ft 7s 5s 11 13 mph 1016.4mb 82f 83f
12:50am 3.5ft 7s 5s 11 13 mph 1017mb 82f 82f
Tue 06/30 11:50pm 3.5ft 7s 5s 7 9 mph 1016.9mb 82f 82f
10:50pm 3.5ft 8s 5s 11 13 mph 1016.1mb 82f 81f
9:50pm 4.5ft 8s 5s 9 11 mph 1016mb 82f 80f
8:50pm 4.5ft 7s 5s 2 4 mph 1017.4mb 82f 79f
7:50pm 5ft 7s 5s 7 9 mph 1018.7mb 82f 79f
6:50pm 6ft 7s 5s 4 7 mph 1018.5mb 82f 77f
5:50pm  -   -   -  13 18 mph 1017.7mb 82f 78f
4:50pm 5ft 6s 4s 29 34 mph 1017.8mb 83f 75f
3:50pm 2.5ft 6s 4s 34 47 mph 1016.5mb 83f 81f
2:50pm 2.5ft 6s 4s 11 13 mph 1016.9mb 83f 85f
1:50pm 2.5ft 6s 4s 16 18 mph 1017.1mb 84f 84f
12:50pm 2.5ft 5s 4s 16 18 mph 1017.1mb 84f 84f
11:50am 2.5ft 5s 4s 11 13 mph 1017.5mb 84f 84f
10:50am 2.5ft 5s 4s 9 11 mph 1017.8mb 83f 84f
9:50am 2.5ft 5s 4s 4 7 mph 1017.2mb 83f 84f
8:50am 3ft 5s 4s 7 9 mph 1016.9mb 82f 84f
7:50am 2.5ft 5s 4s 11 13 mph 1016.3mb 82f 84f
6:50am 2.5ft 5s 4s 11 13 mph 1016.4mb 82f 84f
5:50am 3ft 5s 4s 11 13 mph 1016.1mb 82f 84f
4:50am 2.5ft 5s 4s 11 16 mph 1015.8mb 82f 84f
3:50am 3ft 5s 4s 16 18 mph 1015.3mb 82f 84f
2:50am 2.5ft 5s 4s 13 18 mph 1015.8mb 83f 84f
1:50am 2.5ft 5s 4s 13 16 mph 1016.4mb 82f 84f
12:50am 2.5ft 5s 4s 11 13 mph 1016.6mb 82f 84f
Mon 06/29 11:50pm 2.5ft 5s 4s 13 16 mph 1016.6mb 82f 84f
10:50pm 2.5ft 5s 4s 11 13 mph 1016.5mb 82f 84f
9:50pm 2.5ft 5s 4s 13 18 mph 1015.4mb 82f 84f
8:50pm 2.5ft 5s 4s 16 18 mph 1014.8mb 83f 84f
7:50pm 2.5ft 6s 4s 13 18 mph 1014.9mb 83f 84f
6:50pm 2.5ft 6s 4s 13 16 mph 1014.8mb 83f 84f
5:50pm 2ft 6s 4s 13 16 mph 1014.8mb 83f 84f
4:50pm 2ft 5s 4s 13 18 mph 1015.3mb 83f 85f
3:50pm 2ft 5s 4s 11 13 mph 1016mb 83f 85f
2:50pm 2.5ft 5s 4s 11 13 mph 1016.1mb 83f 84f
1:50pm 2ft 5s 4s 13 16 mph 1016.7mb 83f 84f
12:50pm 2.5ft 4s 4s 9 11 mph 1017.1mb 83f 84f
11:50am 2.5ft 5s 4s 9 11 mph 1017.3mb 83f 84f
10:50am 2.5ft 4s 4s 7
mph
1017.5mb 82f 83f
9:50am 2.5ft 5s 4s 9
mph
1017.5mb 82f 83f
8:50am 2.5ft 4s 4s 9 11 mph 1017.2mb 82f 83f
7:50am 2.5ft 5s 4s 11 13 mph 1016.7mb 82f 83f
6:50am 2.5ft 5s 4s 13 16 mph 1016mb 82f 83f
5:50am 2.5ft 5s 4s 13 16 mph 1015.4mb 82f 83f
4:50am 2.5ft 5s 4s 16 18 mph 1015.3mb 83f 84f
3:50am 2.5ft 6s 4s 16 18 mph 1015.2mb 83f 84f
2:50am 2.5ft 5s 4s 18 20 mph 1015.2mb 83f 84f
1:50am 2ft 5s 3s 18 20 mph 1015.1mb 83f 84f
12:50am 2ft 5s 3s 16 18 mph 1015.2mb 83f 84f
Sun 06/28 11:50pm 1.6ft 5s 4s 16 18 mph 1015.3mb 83f 84f
10:50pm 1.6ft 5s 4s 9 11 mph 1015.4mb 83f 83f
9:50pm 1.6ft 5s 4s 9 11 mph 1015.3mb 83f 83f
8:50pm 1.6ft 6s 4s 9
mph
1015.4mb 84f 83f
7:50pm 1.6ft 5s 4s 9 11 mph 1014.8mb 84f 83f
6:50pm 1.6ft 5s 4s 9 11 mph 1014.9mb 84f 83f